sensor_id;sensor_type;location;lat;lon;timestamp;P1;durP1;ratioP1;P2;durP2;ratioP2
30335;SDS011;17142;47.990;7.846;2023-06-05T00:02:21;4.97;;;4.10;;
30335;SDS011;17142;47.990;7.846;2023-06-05T00:04:47;3.80;;;3.47;;
30335;SDS011;17142;47.990;7.846;2023-06-05T00:07:13;7.20;;;3.70;;
30335;SDS011;17142;47.990;7.846;2023-06-05T00:09:38;3.87;;;3.30;;
30335;SDS011;17142;47.990;7.846;2023-06-05T00:12:04;3.27;;;2.93;;
30335;SDS011;17142;47.990;7.846;2023-06-05T00:14:35;4.10;;;3.70;;
30335;SDS011;17142;47.990;7.846;2023-06-05T00:17:01;4.50;;;3.20;;
30335;SDS011;17142;47.990;7.846;2023-06-05T00:19:32;4.33;;;3.50;;
30335;SDS011;17142;47.990;7.846;2023-06-05T00:22:02;4.20;;;3.80;;
30335;SDS011;17142;47.990;7.846;2023-06-05T00:24:28;5.80;;;3.50;;
30335;SDS011;17142;47.990;7.846;2023-06-05T00:26:53;4.67;;;3.43;;
30335;SDS011;17142;47.990;7.846;2023-06-05T00:29:19;5.20;;;4.00;;
30335;SDS011;17142;47.990;7.846;2023-06-05T00:31:44;6.47;;;3.37;;
30335;SDS011;17142;47.990;7.846;2023-06-05T00:34:12;4.20;;;3.80;;
30335;SDS011;17142;47.990;7.846;2023-06-05T00:36:38;4.60;;;3.70;;
30335;SDS011;17142;47.990;7.846;2023-06-05T00:39:08;6.60;;;3.67;;
30335;SDS011;17142;47.990;7.846;2023-06-05T00:41:36;5.07;;;3.37;;
30335;SDS011;17142;47.990;7.846;2023-06-05T00:44:06;4.47;;;3.10;;
30335;SDS011;17142;47.990;7.846;2023-06-05T00:46:32;3.90;;;3.20;;
30335;SDS011;17142;47.990;7.846;2023-06-05T00:48:58;4.70;;;4.20;;
30335;SDS011;17142;47.990;7.846;2023-06-05T00:51:24;3.97;;;2.90;;
30335;SDS011;17142;47.990;7.846;2023-06-05T00:53:50;5.50;;;3.57;;
30335;SDS011;17142;47.990;7.846;2023-06-05T00:56:16;3.93;;;2.97;;
30335;SDS011;17142;47.990;7.846;2023-06-05T00:58:45;4.93;;;3.50;;
30335;SDS011;17142;47.990;7.846;2023-06-05T01:01:12;6.10;;;4.40;;
30335;SDS011;17142;47.990;7.846;2023-06-05T01:03:42;7.80;;;3.53;;
30335;SDS011;17142;47.990;7.846;2023-06-05T01:06:10;4.20;;;3.57;;
30335;SDS011;17142;47.990;7.846;2023-06-05T01:08:36;3.60;;;3.30;;
30335;SDS011;17142;47.990;7.846;2023-06-05T01:11:09;4.03;;;3.50;;
30335;SDS011;17142;47.990;7.846;2023-06-05T01:13:50;4.67;;;3.97;;
30335;SDS011;17142;47.990;7.846;2023-06-05T01:16:39;4.97;;;3.63;;
30335;SDS011;17142;47.990;7.846;2023-06-05T01:19:07;6.77;;;3.03;;
30335;SDS011;17142;47.990;7.846;2023-06-05T01:21:41;4.13;;;3.50;;
30335;SDS011;17142;47.990;7.846;2023-06-05T01:24:09;4.40;;;3.67;;
30335;SDS011;17142;47.990;7.846;2023-06-05T01:29:46;5.10;;;3.50;;
30335;SDS011;17142;47.990;7.846;2023-06-05T01:33:06;4.87;;;4.00;;
30335;SDS011;17142;47.990;7.846;2023-06-05T01:35:22;4.53;;;3.80;;
30335;SDS011;17142;47.990;7.846;2023-06-05T01:37:58;7.17;;;3.80;;
30335;SDS011;17142;47.990;7.846;2023-06-05T01:40:27;5.90;;;3.93;;
30335;SDS011;17142;47.990;7.846;2023-06-05T01:42:54;4.47;;;3.67;;
30335;SDS011;17142;47.990;7.846;2023-06-05T01:45:27;5.00;;;4.10;;
30335;SDS011;17142;47.990;7.846;2023-06-05T01:47:53;6.53;;;3.90;;
30335;SDS011;17142;47.990;7.846;2023-06-05T01:50:20;4.00;;;3.60;;
30335;SDS011;17142;47.990;7.846;2023-06-05T01:52:46;3.90;;;2.87;;
30335;SDS011;17142;47.990;7.846;2023-06-05T01:55:18;4.20;;;3.37;;
30335;SDS011;17142;47.990;7.846;2023-06-05T01:57:52;4.00;;;3.37;;
30335;SDS011;17142;47.990;7.846;2023-06-05T02:00:18;3.47;;;2.60;;
30335;SDS011;17142;47.990;7.846;2023-06-05T02:02:44;4.90;;;3.60;;
30335;SDS011;17142;47.990;7.846;2023-06-05T02:05:11;5.00;;;3.67;;
30335;SDS011;17142;47.990;7.846;2023-06-05T02:07:38;7.27;;;3.90;;
30335;SDS011;17142;47.990;7.846;2023-06-05T02:10:05;6.60;;;3.70;;
30335;SDS011;17142;47.990;7.846;2023-06-05T02:12:32;6.77;;;3.90;;
30335;SDS011;17142;47.990;7.846;2023-06-05T02:15:01;4.70;;;3.77;;
30335;SDS011;17142;47.990;7.846;2023-06-05T02:17:29;5.03;;;2.97;;
30335;SDS011;17142;47.990;7.846;2023-06-05T02:19:57;5.27;;;4.50;;
30335;SDS011;17142;47.990;7.846;2023-06-05T02:22:23;8.03;;;5.07;;
30335;SDS011;17142;47.990;7.846;2023-06-05T02:24:49;5.13;;;4.40;;
30335;SDS011;17142;47.990;7.846;2023-06-05T02:27:17;8.20;;;4.10;;
30335;SDS011;17142;47.990;7.846;2023-06-05T02:29:43;4.93;;;3.77;;
30335;SDS011;17142;47.990;7.846;2023-06-05T02:32:08;5.03;;;4.50;;
30335;SDS011;17142;47.990;7.846;2023-06-05T02:34:37;4.30;;;3.90;;
30335;SDS011;17142;47.990;7.846;2023-06-05T02:37:03;5.90;;;4.13;;
30335;SDS011;17142;47.990;7.846;2023-06-05T02:39:31;6.20;;;4.83;;
30335;SDS011;17142;47.990;7.846;2023-06-05T02:41:58;5.13;;;4.50;;
30335;SDS011;17142;47.990;7.846;2023-06-05T02:44:24;7.30;;;5.00;;
30335;SDS011;17142;47.990;7.846;2023-06-05T02:46:49;6.43;;;4.90;;
30335;SDS011;17142;47.990;7.846;2023-06-05T02:49:15;8.03;;;5.47;;
30335;SDS011;17142;47.990;7.846;2023-06-05T02:51:43;7.80;;;5.80;;
30335;SDS011;17142;47.990;7.846;2023-06-05T02:54:08;6.10;;;5.50;;
30335;SDS011;17142;47.990;7.846;2023-06-05T02:56:36;5.93;;;4.17;;
30335;SDS011;17142;47.990;7.846;2023-06-05T02:59:02;5.43;;;4.70;;
30335;SDS011;17142;47.990;7.846;2023-06-05T03:01:30;6.00;;;5.40;;
30335;SDS011;17142;47.990;7.846;2023-06-05T03:04:00;7.13;;;4.83;;
30335;SDS011;17142;47.990;7.846;2023-06-05T03:06:28;6.80;;;4.70;;
30335;SDS011;17142;47.990;7.846;2023-06-05T03:08:58;6.80;;;4.20;;
30335;SDS011;17142;47.990;7.846;2023-06-05T03:11:24;6.73;;;4.70;;
30335;SDS011;17142;47.990;7.846;2023-06-05T03:13:53;8.03;;;6.00;;
30335;SDS011;17142;47.990;7.846;2023-06-05T03:16:19;6.83;;;4.73;;
30335;SDS011;17142;47.990;7.846;2023-06-05T03:18:50;7.83;;;5.40;;
30335;SDS011;17142;47.990;7.846;2023-06-05T03:21:15;7.23;;;4.40;;
30335;SDS011;17142;47.990;7.846;2023-06-05T03:23:41;7.80;;;4.80;;
30335;SDS011;17142;47.990;7.846;2023-06-05T03:26:09;7.63;;;5.43;;
30335;SDS011;17142;47.990;7.846;2023-06-05T03:28:37;7.00;;;4.40;;
30335;SDS011;17142;47.990;7.846;2023-06-05T03:31:05;6.33;;;3.80;;
30335;SDS011;17142;47.990;7.846;2023-06-05T03:33:30;6.70;;;4.07;;
30335;SDS011;17142;47.990;7.846;2023-06-05T03:35:56;8.00;;;4.60;;
30335;SDS011;17142;47.990;7.846;2023-06-05T03:38:25;6.27;;;4.40;;
30335;SDS011;17142;47.990;7.846;2023-06-05T03:40:53;7.30;;;4.37;;
30335;SDS011;17142;47.990;7.846;2023-06-05T03:43:18;5.57;;;4.97;;
30335;SDS011;17142;47.990;7.846;2023-06-05T03:45:45;4.97;;;4.13;;
30335;SDS011;17142;47.990;7.846;2023-06-05T03:48:11;7.43;;;4.83;;
30335;SDS011;17142;47.990;7.846;2023-06-05T03:50:38;4.60;;;4.10;;
30335;SDS011;17142;47.990;7.846;2023-06-05T03:53:06;5.77;;;4.10;;
30335;SDS011;17142;47.990;7.846;2023-06-05T03:55:33;4.50;;;3.60;;
30335;SDS011;17142;47.990;7.846;2023-06-05T03:58:14;4.87;;;4.00;;
30335;SDS011;17142;47.990;7.846;2023-06-05T04:00:43;4.17;;;3.77;;
30335;SDS011;17142;47.990;7.846;2023-06-05T04:03:16;9.20;;;4.60;;
30335;SDS011;17142;47.990;7.846;2023-06-05T04:05:43;8.33;;;4.30;;
30335;SDS011;17142;47.990;7.846;2023-06-05T04:08:11;5.83;;;4.17;;
30335;SDS011;17142;47.990;7.846;2023-06-05T04:10:37;3.90;;;3.50;;
30335;SDS011;17142;47.990;7.846;2023-06-05T04:13:05;3.97;;;3.57;;
30335;SDS011;17142;47.990;7.846;2023-06-05T04:15:31;3.80;;;3.20;;
30335;SDS011;17142;47.990;7.846;2023-06-05T04:17:59;5.30;;;3.83;;
30335;SDS011;17142;47.990;7.846;2023-06-05T04:20:28;6.87;;;4.67;;
30335;SDS011;17142;47.990;7.846;2023-06-05T04:22:54;4.70;;;3.30;;
30335;SDS011;17142;47.990;7.846;2023-06-05T04:25:19;4.90;;;3.53;;
30335;SDS011;17142;47.990;7.846;2023-06-05T04:27:47;4.60;;;3.63;;
30335;SDS011;17142;47.990;7.846;2023-06-05T04:30:17;5.00;;;4.23;;
30335;SDS011;17142;47.990;7.846;2023-06-05T04:32:45;6.73;;;5.07;;
30335;SDS011;17142;47.990;7.846;2023-06-05T04:35:19;3.73;;;3.30;;
30335;SDS011;17142;47.990;7.846;2023-06-05T04:37:48;4.87;;;3.80;;
30335;SDS011;17142;47.990;7.846;2023-06-05T04:40:21;3.97;;;3.57;;
30335;SDS011;17142;47.990;7.846;2023-06-05T04:42:47;4.03;;;3.63;;
30335;SDS011;17142;47.990;7.846;2023-06-05T04:45:13;4.70;;;3.80;;
30335;SDS011;17142;47.990;7.846;2023-06-05T04:47:38;5.50;;;4.37;;
30335;SDS011;17142;47.990;7.846;2023-06-05T04:50:05;6.50;;;4.00;;
30335;SDS011;17142;47.990;7.846;2023-06-05T04:52:31;7.30;;;4.57;;
30335;SDS011;17142;47.990;7.846;2023-06-05T04:55:02;5.93;;;3.80;;
30335;SDS011;17142;47.990;7.846;2023-06-05T04:57:28;6.80;;;4.03;;
30335;SDS011;17142;47.990;7.846;2023-06-05T04:59:54;5.87;;;4.00;;
30335;SDS011;17142;47.990;7.846;2023-06-05T05:02:21;4.80;;;3.83;;
30335;SDS011;17142;47.990;7.846;2023-06-05T05:04:48;7.43;;;4.27;;
30335;SDS011;17142;47.990;7.846;2023-06-05T05:07:13;4.13;;;3.73;;
30335;SDS011;17142;47.990;7.846;2023-06-05T05:09:43;4.30;;;3.90;;
30335;SDS011;17142;47.990;7.846;2023-06-05T05:12:09;5.87;;;4.17;;
30335;SDS011;17142;47.990;7.846;2023-06-05T05:14:36;5.50;;;3.40;;
30335;SDS011;17142;47.990;7.846;2023-06-05T05:17:02;6.57;;;4.30;;
30335;SDS011;17142;47.990;7.846;2023-06-05T05:19:28;4.23;;;3.83;;
30335;SDS011;17142;47.990;7.846;2023-06-05T05:21:54;4.77;;;4.27;;
30335;SDS011;17142;47.990;7.846;2023-06-05T05:24:20;4.80;;;4.30;;
30335;SDS011;17142;47.990;7.846;2023-06-05T05:26:48;4.30;;;3.70;;
30335;SDS011;17142;47.990;7.846;2023-06-05T05:29:17;4.30;;;3.40;;
30335;SDS011;17142;47.990;7.846;2023-06-05T05:31:43;4.27;;;3.60;;
30335;SDS011;17142;47.990;7.846;2023-06-05T05:34:11;5.10;;;4.20;;
30335;SDS011;17142;47.990;7.846;2023-06-05T05:36:37;5.17;;;4.17;;
30335;SDS011;17142;47.990;7.846;2023-06-05T05:39:05;4.47;;;4.03;;
30335;SDS011;17142;47.990;7.846;2023-06-05T05:41:34;4.47;;;3.50;;
30335;SDS011;17142;47.990;7.846;2023-06-05T05:44:02;6.43;;;4.13;;
30335;SDS011;17142;47.990;7.846;2023-06-05T05:46:28;8.40;;;4.00;;
30335;SDS011;17142;47.990;7.846;2023-06-05T05:48:53;6.40;;;3.90;;
30335;SDS011;17142;47.990;7.846;2023-06-05T05:51:20;5.40;;;3.60;;
30335;SDS011;17142;47.990;7.846;2023-06-05T05:53:46;4.90;;;4.00;;
30335;SDS011;17142;47.990;7.846;2023-06-05T05:56:12;4.63;;;3.93;;
30335;SDS011;17142;47.990;7.846;2023-06-05T05:58:39;3.87;;;3.50;;
30335;SDS011;17142;47.990;7.846;2023-06-05T06:01:05;4.47;;;4.03;;
30335;SDS011;17142;47.990;7.846;2023-06-05T06:03:31;4.07;;;3.63;;
30335;SDS011;17142;47.990;7.846;2023-06-05T06:06:02;3.60;;;3.30;;
30335;SDS011;17142;47.990;7.846;2023-06-05T06:08:28;5.40;;;3.77;;
30335;SDS011;17142;47.990;7.846;2023-06-05T06:10:54;4.70;;;3.93;;
30335;SDS011;17142;47.990;7.846;2023-06-05T06:13:20;5.20;;;4.50;;
30335;SDS011;17142;47.990;7.846;2023-06-05T06:15:48;5.07;;;4.40;;
30335;SDS011;17142;47.990;7.846;2023-06-05T06:18:16;5.60;;;4.10;;
30335;SDS011;17142;47.990;7.846;2023-06-05T06:20:44;5.50;;;4.20;;
30335;SDS011;17142;47.990;7.846;2023-06-05T06:23:09;4.30;;;3.90;;
30335;SDS011;17142;47.990;7.846;2023-06-05T06:25:35;5.80;;;4.60;;
30335;SDS011;17142;47.990;7.846;2023-06-05T06:28:04;6.03;;;3.70;;
30335;SDS011;17142;47.990;7.846;2023-06-05T06:30:30;4.77;;;4.30;;
30335;SDS011;17142;47.990;7.846;2023-06-05T06:32:58;6.13;;;4.30;;
30335;SDS011;17142;47.990;7.846;2023-06-05T06:35:24;6.33;;;4.07;;
30335;SDS011;17142;47.990;7.846;2023-06-05T06:37:52;5.23;;;3.90;;
30335;SDS011;17142;47.990;7.846;2023-06-05T06:40:21;10.33;;;4.00;;
30335;SDS011;17142;47.990;7.846;2023-06-05T06:42:49;6.23;;;3.50;;
30335;SDS011;17142;47.990;7.846;2023-06-05T06:45:18;4.33;;;3.93;;
30335;SDS011;17142;47.990;7.846;2023-06-05T06:47:46;6.93;;;3.03;;
30335;SDS011;17142;47.990;7.846;2023-06-05T06:50:12;6.00;;;3.23;;
30335;SDS011;17142;47.990;7.846;2023-06-05T06:52:39;4.00;;;3.70;;
30335;SDS011;17142;47.990;7.846;2023-06-05T06:55:05;4.77;;;3.50;;
30335;SDS011;17142;47.990;7.846;2023-06-05T06:57:33;4.33;;;3.40;;
30335;SDS011;17142;47.990;7.846;2023-06-05T06:59:59;6.30;;;3.47;;
30335;SDS011;17142;47.990;7.846;2023-06-05T07:02:24;3.80;;;3.33;;
30335;SDS011;17142;47.990;7.846;2023-06-05T07:04:53;3.80;;;3.40;;
30335;SDS011;17142;47.990;7.846;2023-06-05T07:07:19;7.00;;;3.43;;
30335;SDS011;17142;47.990;7.846;2023-06-05T07:09:49;9.03;;;3.70;;
30335;SDS011;17142;47.990;7.846;2023-06-05T07:12:18;4.57;;;3.23;;
30335;SDS011;17142;47.990;7.846;2023-06-05T07:14:48;4.77;;;3.43;;
30335;SDS011;17142;47.990;7.846;2023-06-05T07:17:15;8.60;;;3.77;;
30335;SDS011;17142;47.990;7.846;2023-06-05T07:19:41;4.60;;;3.00;;
30335;SDS011;17142;47.990;7.846;2023-06-05T07:22:07;5.80;;;4.37;;
30335;SDS011;17142;47.990;7.846;2023-06-05T07:24:33;5.70;;;3.40;;
30335;SDS011;17142;47.990;7.846;2023-06-05T07:27:03;6.20;;;3.53;;
30335;SDS011;17142;47.990;7.846;2023-06-05T07:29:30;3.67;;;3.10;;
30335;SDS011;17142;47.990;7.846;2023-06-05T07:31:59;5.60;;;3.70;;
30335;SDS011;17142;47.990;7.846;2023-06-05T07:34:25;4.50;;;3.60;;
30335;SDS011;17142;47.990;7.846;2023-06-05T07:36:55;4.93;;;3.43;;
30335;SDS011;17142;47.990;7.846;2023-06-05T07:39:21;6.30;;;3.57;;
30335;SDS011;17142;47.990;7.846;2023-06-05T07:41:50;3.60;;;3.13;;
30335;SDS011;17142;47.990;7.846;2023-06-05T07:44:16;4.20;;;3.67;;
30335;SDS011;17142;47.990;7.846;2023-06-05T07:46:44;4.77;;;2.90;;
30335;SDS011;17142;47.990;7.846;2023-06-05T07:49:11;6.60;;;3.60;;
30335;SDS011;17142;47.990;7.846;2023-06-05T07:51:37;3.90;;;3.50;;
30335;SDS011;17142;47.990;7.846;2023-06-05T07:54:03;9.10;;;3.90;;
30335;SDS011;17142;47.990;7.846;2023-06-05T07:56:33;5.23;;;3.63;;
30335;SDS011;17142;47.990;7.846;2023-06-05T07:59:02;6.90;;;3.70;;
30335;SDS011;17142;47.990;7.846;2023-06-05T08:01:29;7.80;;;3.50;;
30335;SDS011;17142;47.990;7.846;2023-06-05T08:04:01;5.50;;;3.93;;
30335;SDS011;17142;47.990;7.846;2023-06-05T08:06:30;7.50;;;4.47;;
30335;SDS011;17142;47.990;7.846;2023-06-05T08:08:57;4.10;;;3.20;;
30335;SDS011;17142;47.990;7.846;2023-06-05T08:11:28;5.50;;;3.77;;
30335;SDS011;17142;47.990;7.846;2023-06-05T08:13:54;6.37;;;4.20;;
30335;SDS011;17142;47.990;7.846;2023-06-05T08:16:20;5.67;;;4.03;;
30335;SDS011;17142;47.990;7.846;2023-06-05T08:18:46;3.90;;;3.10;;
30335;SDS011;17142;47.990;7.846;2023-06-05T08:21:12;3.70;;;3.10;;
30335;SDS011;17142;47.990;7.846;2023-06-05T08:23:38;4.97;;;3.73;;
30335;SDS011;17142;47.990;7.846;2023-06-05T08:26:08;7.90;;;4.27;;
30335;SDS011;17142;47.990;7.846;2023-06-05T08:28:37;5.70;;;3.83;;
30335;SDS011;17142;47.990;7.846;2023-06-05T08:31:07;9.43;;;3.77;;
30335;SDS011;17142;47.990;7.846;2023-06-05T08:33:33;4.10;;;3.60;;
30335;SDS011;17142;47.990;7.846;2023-06-05T08:35:59;6.37;;;4.37;;
30335;SDS011;17142;47.990;7.846;2023-06-05T08:38:28;5.40;;;3.87;;
30335;SDS011;17142;47.990;7.846;2023-06-05T08:41:04;4.87;;;3.43;;
30335;SDS011;17142;47.990;7.846;2023-06-05T08:43:38;5.27;;;3.50;;
30335;SDS011;17142;47.990;7.846;2023-06-05T08:46:08;6.10;;;3.93;;
30335;SDS011;17142;47.990;7.846;2023-06-05T08:48:41;3.83;;;3.50;;
30335;SDS011;17142;47.990;7.846;2023-06-05T08:51:15;5.27;;;4.10;;
30335;SDS011;17142;47.990;7.846;2023-06-05T08:53:43;6.23;;;3.33;;
30335;SDS011;17142;47.990;7.846;2023-06-05T08:56:37;6.07;;;3.47;;
30335;SDS011;17142;47.990;7.846;2023-06-05T08:59:09;4.37;;;3.80;;
30335;SDS011;17142;47.990;7.846;2023-06-05T09:01:39;6.17;;;4.20;;
30335;SDS011;17142;47.990;7.846;2023-06-05T09:04:05;5.27;;;3.60;;
30335;SDS011;17142;47.990;7.846;2023-06-05T09:06:31;6.43;;;3.90;;
30335;SDS011;17142;47.990;7.846;2023-06-05T09:09:04;5.50;;;2.97;;
30335;SDS011;17142;47.990;7.846;2023-06-05T09:11:31;4.57;;;2.80;;
30335;SDS011;17142;47.990;7.846;2023-06-05T09:13:58;4.60;;;3.30;;
30335;SDS011;17142;47.990;7.846;2023-06-05T09:16:33;5.10;;;3.70;;
30335;SDS011;17142;47.990;7.846;2023-06-05T09:19:01;5.40;;;3.03;;
30335;SDS011;17142;47.990;7.846;2023-06-05T09:21:29;6.77;;;3.90;;
30335;SDS011;17142;47.990;7.846;2023-06-05T09:26:59;4.00;;;3.33;;
30335;SDS011;17142;47.990;7.846;2023-06-05T09:29:36;4.63;;;2.97;;
30335;SDS011;17142;47.990;7.846;2023-06-05T09:32:04;7.17;;;3.17;;
30335;SDS011;17142;47.990;7.846;2023-06-05T09:37:05;3.57;;;2.80;;
30335;SDS011;17142;47.990;7.846;2023-06-05T09:39:35;4.10;;;3.30;;
30335;SDS011;17142;47.990;7.846;2023-06-05T09:42:04;4.53;;;2.83;;
30335;SDS011;17142;47.990;7.846;2023-06-05T09:44:31;4.80;;;3.33;;
30335;SDS011;17142;47.990;7.846;2023-06-05T09:52:05;7.37;;;2.60;;
30335;SDS011;17142;47.990;7.846;2023-06-05T09:54:32;6.20;;;3.00;;
30335;SDS011;17142;47.990;7.846;2023-06-05T09:57:01;9.80;;;3.33;;
30335;SDS011;17142;47.990;7.846;2023-06-05T09:59:29;4.57;;;3.17;;
30335;SDS011;17142;47.990;7.846;2023-06-05T10:02:02;5.57;;;2.97;;
30335;SDS011;17142;47.990;7.846;2023-06-05T10:04:41;3.40;;;2.80;;
30335;SDS011;17142;47.990;7.846;2023-06-05T10:07:13;4.20;;;3.57;;
30335;SDS011;17142;47.990;7.846;2023-06-05T10:09:40;3.63;;;2.90;;
30335;SDS011;17142;47.990;7.846;2023-06-05T10:12:09;4.80;;;2.90;;
30335;SDS011;17142;47.990;7.846;2023-06-05T10:14:35;4.07;;;3.30;;
30335;SDS011;17142;47.990;7.846;2023-06-05T10:17:05;3.70;;;3.40;;
30335;SDS011;17142;47.990;7.846;2023-06-05T10:19:31;4.37;;;3.17;;
30335;SDS011;17142;47.990;7.846;2023-06-05T10:21:57;3.87;;;3.40;;
30335;SDS011;17142;47.990;7.846;2023-06-05T10:37:47;8.33;;;2.70;;
30335;SDS011;17142;47.990;7.846;2023-06-05T10:40:19;3.93;;;2.90;;
30335;SDS011;17142;47.990;7.846;2023-06-05T10:42:46;2.90;;;2.57;;
30335;SDS011;17142;47.990;7.846;2023-06-05T10:45:12;4.70;;;3.13;;
30335;SDS011;17142;47.990;7.846;2023-06-05T10:52:41;3.63;;;3.20;;
30335;SDS011;17142;47.990;7.846;2023-06-05T10:55:08;6.10;;;3.37;;
30335;SDS011;17142;47.990;7.846;2023-06-05T11:00:38;5.43;;;3.40;;
30335;SDS011;17142;47.990;7.846;2023-06-05T11:06:21;4.73;;;2.53;;
30335;SDS011;17142;47.990;7.846;2023-06-05T11:14:47;4.37;;;3.10;;
30335;SDS011;17142;47.990;7.846;2023-06-05T11:27:48;6.07;;;3.00;;
30335;SDS011;17142;47.990;7.846;2023-06-05T11:30:22;4.10;;;3.10;;
30335;SDS011;17142;47.990;7.846;2023-06-05T11:32:50;4.17;;;3.07;;
30335;SDS011;17142;47.990;7.846;2023-06-05T11:35:20;9.83;;;3.63;;
30335;SDS011;17142;47.990;7.846;2023-06-05T11:37:49;4.27;;;3.33;;
30335;SDS011;17142;47.990;7.846;2023-06-05T11:40:34;5.83;;;4.40;;
30335;SDS011;17142;47.990;7.846;2023-06-05T11:43:11;4.83;;;3.30;;
30335;SDS011;17142;47.990;7.846;2023-06-05T11:45:42;4.00;;;3.03;;
30335;SDS011;17142;47.990;7.846;2023-06-05T11:48:16;5.33;;;3.23;;
30335;SDS011;17142;47.990;7.846;2023-06-05T11:53:25;4.73;;;3.80;;
30335;SDS011;17142;47.990;7.846;2023-06-05T11:55:55;3.90;;;3.47;;
30335;SDS011;17142;47.990;7.846;2023-06-05T11:58:36;4.77;;;3.27;;
30335;SDS011;17142;47.990;7.846;2023-06-05T12:03:32;3.97;;;3.13;;
30335;SDS011;17142;47.990;7.846;2023-06-05T12:06:01;3.23;;;2.90;;
30335;SDS011;17142;47.990;7.846;2023-06-05T12:08:30;4.20;;;3.60;;
30335;SDS011;17142;47.990;7.846;2023-06-05T12:11:02;3.47;;;3.17;;
30335;SDS011;17142;47.990;7.846;2023-06-05T12:13:47;4.67;;;3.27;;
30335;SDS011;17142;47.990;7.846;2023-06-05T12:16:14;3.77;;;3.47;;
30335;SDS011;17142;47.990;7.846;2023-06-05T12:18:44;6.00;;;3.17;;
30335;SDS011;17142;47.990;7.846;2023-06-05T12:21:20;9.10;;;5.07;;
30335;SDS011;17142;47.990;7.846;2023-06-05T12:23:51;5.97;;;3.50;;
30335;SDS011;17142;47.990;7.846;2023-06-05T12:26:25;9.70;;;3.50;;
30335;SDS011;17142;47.990;7.846;2023-06-05T12:29:01;8.10;;;3.87;;
30335;SDS011;17142;47.990;7.846;2023-06-05T12:31:33;3.90;;;3.50;;
30335;SDS011;17142;47.990;7.846;2023-06-05T12:34:07;3.40;;;3.10;;
30335;SDS011;17142;47.990;7.846;2023-06-05T12:36:48;8.47;;;3.70;;
30335;SDS011;17142;47.990;7.846;2023-06-05T12:39:16;3.53;;;3.20;;
30335;SDS011;17142;47.990;7.846;2023-06-05T12:41:44;4.97;;;3.43;;
30335;SDS011;17142;47.990;7.846;2023-06-05T12:44:23;4.63;;;2.80;;
30335;SDS011;17142;47.990;7.846;2023-06-05T12:46:49;3.93;;;2.77;;
30335;SDS011;17142;47.990;7.846;2023-06-05T12:49:17;3.27;;;2.97;;
30335;SDS011;17142;47.990;7.846;2023-06-05T12:51:43;4.60;;;4.03;;
30335;SDS011;17142;47.990;7.846;2023-06-05T12:54:08;3.80;;;3.40;;
30335;SDS011;17142;47.990;7.846;2023-06-05T12:56:42;4.60;;;3.50;;
30335;SDS011;17142;47.990;7.846;2023-06-05T12:59:10;5.00;;;3.93;;
30335;SDS011;17142;47.990;7.846;2023-06-05T13:01:42;5.00;;;3.30;;
30335;SDS011;17142;47.990;7.846;2023-06-05T13:04:07;3.47;;;2.90;;
30335;SDS011;17142;47.990;7.846;2023-06-05T13:06:41;3.67;;;3.23;;
30335;SDS011;17142;47.990;7.846;2023-06-05T13:09:07;4.13;;;3.70;;
30335;SDS011;17142;47.990;7.846;2023-06-05T13:11:42;3.73;;;3.33;;
30335;SDS011;17142;47.990;7.846;2023-06-05T13:14:16;8.23;;;4.23;;
30335;SDS011;17142;47.990;7.846;2023-06-05T13:16:41;3.90;;;3.27;;
30335;SDS011;17142;47.990;7.846;2023-06-05T13:19:13;3.70;;;3.17;;
30335;SDS011;17142;47.990;7.846;2023-06-05T13:21:39;7.80;;;3.33;;
30335;SDS011;17142;47.990;7.846;2023-06-05T13:24:11;3.40;;;3.10;;
30335;SDS011;17142;47.990;7.846;2023-06-05T13:26:39;3.90;;;3.30;;
30335;SDS011;17142;47.990;7.846;2023-06-05T13:29:08;3.10;;;2.80;;
30335;SDS011;17142;47.990;7.846;2023-06-05T13:34:54;5.43;;;3.20;;
30335;SDS011;17142;47.990;7.846;2023-06-05T13:37:31;5.77;;;3.63;;
30335;SDS011;17142;47.990;7.846;2023-06-05T13:39:56;3.53;;;3.20;;
30335;SDS011;17142;47.990;7.846;2023-06-05T13:42:58;5.60;;;3.30;;
30335;SDS011;17142;47.990;7.846;2023-06-05T13:45:32;6.67;;;3.90;;
30335;SDS011;17142;47.990;7.846;2023-06-05T13:48:16;3.73;;;3.33;;
30335;SDS011;17142;47.990;7.846;2023-06-05T13:50:47;3.80;;;3.30;;
30335;SDS011;17142;47.990;7.846;2023-06-05T13:53:15;5.23;;;2.97;;
30335;SDS011;17142;47.990;7.846;2023-06-05T13:55:52;3.53;;;3.23;;
30335;SDS011;17142;47.990;7.846;2023-06-05T13:58:41;6.33;;;2.80;;
30335;SDS011;17142;47.990;7.846;2023-06-05T14:01:09;4.00;;;3.07;;
30335;SDS011;17142;47.990;7.846;2023-06-05T14:03:41;4.30;;;3.33;;
30335;SDS011;17142;47.990;7.846;2023-06-05T14:06:07;4.30;;;3.20;;
30335;SDS011;17142;47.990;7.846;2023-06-05T14:08:39;4.17;;;3.77;;
30335;SDS011;17142;47.990;7.846;2023-06-05T14:11:07;13.10;;;4.60;;
30335;SDS011;17142;47.990;7.846;2023-06-05T14:13:39;5.10;;;3.70;;
30335;SDS011;17142;47.990;7.846;2023-06-05T14:16:18;7.83;;;3.83;;
30335;SDS011;17142;47.990;7.846;2023-06-05T14:18:51;8.07;;;4.53;;
30335;SDS011;17142;47.990;7.846;2023-06-05T14:27:14;4.47;;;4.03;;
30335;SDS011;17142;47.990;7.846;2023-06-05T14:29:43;4.77;;;3.60;;
30335;SDS011;17142;47.990;7.846;2023-06-05T14:32:09;5.80;;;4.17;;
30335;SDS011;17142;47.990;7.846;2023-06-05T14:34:34;4.07;;;3.67;;
30335;SDS011;17142;47.990;7.846;2023-06-05T14:37:03;4.50;;;3.77;;
30335;SDS011;17142;47.990;7.846;2023-06-05T14:40:02;3.70;;;3.40;;
30335;SDS011;17142;47.990;7.846;2023-06-05T14:42:33;4.57;;;3.30;;
30335;SDS011;17142;47.990;7.846;2023-06-05T14:45:01;5.83;;;3.70;;
30335;SDS011;17142;47.990;7.846;2023-06-05T14:47:33;5.10;;;3.97;;
30335;SDS011;17142;47.990;7.846;2023-06-05T14:49:59;5.90;;;3.53;;
30335;SDS011;17142;47.990;7.846;2023-06-05T14:52:27;4.67;;;3.53;;
30335;SDS011;17142;47.990;7.846;2023-06-05T14:54:53;4.40;;;3.50;;
30335;SDS011;17142;47.990;7.846;2023-06-05T14:57:24;7.07;;;4.57;;
30335;SDS011;17142;47.990;7.846;2023-06-05T14:59:50;4.80;;;4.17;;
30335;SDS011;17142;47.990;7.846;2023-06-05T15:02:24;7.60;;;4.30;;
30335;SDS011;17142;47.990;7.846;2023-06-05T15:04:51;5.30;;;4.40;;
30335;SDS011;17142;47.990;7.846;2023-06-05T15:07:18;4.83;;;4.23;;
30335;SDS011;17142;47.990;7.846;2023-06-05T15:09:55;5.40;;;4.50;;
30335;SDS011;17142;47.990;7.846;2023-06-05T15:12:33;6.23;;;4.57;;
30335;SDS011;17142;47.990;7.846;2023-06-05T15:15:02;7.47;;;4.90;;
30335;SDS011;17142;47.990;7.846;2023-06-05T15:17:38;4.90;;;3.43;;
30335;SDS011;17142;47.990;7.846;2023-06-05T15:20:10;4.67;;;4.27;;
30335;SDS011;17142;47.990;7.846;2023-06-05T15:22:45;7.07;;;4.40;;
30335;SDS011;17142;47.990;7.846;2023-06-05T15:25:13;5.83;;;4.43;;
30335;SDS011;17142;47.990;7.846;2023-06-05T15:27:51;6.17;;;3.87;;
30335;SDS011;17142;47.990;7.846;2023-06-05T15:30:20;7.23;;;4.50;;
30335;SDS011;17142;47.990;7.846;2023-06-05T15:33:03;4.80;;;4.20;;
30335;SDS011;17142;47.990;7.846;2023-06-05T15:35:28;6.80;;;4.53;;
30335;SDS011;17142;47.990;7.846;2023-06-05T15:37:54;6.07;;;4.90;;
30335;SDS011;17142;47.990;7.846;2023-06-05T15:40:20;5.60;;;5.00;;
30335;SDS011;17142;47.990;7.846;2023-06-05T15:42:59;5.87;;;5.27;;
30335;SDS011;17142;47.990;7.846;2023-06-05T15:45:37;4.93;;;4.43;;
30335;SDS011;17142;47.990;7.846;2023-06-05T15:48:10;5.93;;;5.30;;
30335;SDS011;17142;47.990;7.846;2023-06-05T15:50:50;5.90;;;5.17;;
30335;SDS011;17142;47.990;7.846;2023-06-05T15:53:16;6.63;;;4.70;;
30335;SDS011;17142;47.990;7.846;2023-06-05T15:56:29;7.57;;;5.23;;
30335;SDS011;17142;47.990;7.846;2023-06-05T15:58:54;5.47;;;4.30;;
30335;SDS011;17142;47.990;7.846;2023-06-05T16:01:25;6.40;;;5.60;;
30335;SDS011;17142;47.990;7.846;2023-06-05T16:04:00;6.83;;;5.47;;
30335;SDS011;17142;47.990;7.846;2023-06-05T16:06:36;7.50;;;4.77;;
30335;SDS011;17142;47.990;7.846;2023-06-05T16:09:01;5.47;;;5.00;;
30335;SDS011;17142;47.990;7.846;2023-06-05T16:11:37;6.23;;;5.47;;